createdAt,value
2023-04-06T00:00:09.836Z,14.57
2023-04-06T00:02:38.048Z,13.83
2023-04-06T00:05:08.190Z,15.67
2023-04-06T00:07:36.482Z,12.97
2023-04-06T00:10:06.026Z,14.13
2023-04-06T00:12:34.160Z,13.43
2023-04-06T00:15:02.830Z,12.97
2023-04-06T00:17:30.848Z,15.17
2023-04-06T00:20:01.543Z,13.63
2023-04-06T00:22:30.929Z,13.87
2023-04-06T00:24:58.919Z,13.60
2023-04-06T00:27:26.879Z,13.53
2023-04-06T00:29:55.269Z,15.87
2023-04-06T00:32:24.187Z,15.03
2023-04-06T00:34:52.249Z,16.13
2023-04-06T00:37:20.600Z,13.90
2023-04-06T00:39:49.945Z,12.33
2023-04-06T00:42:19.091Z,14.80
2023-04-06T00:44:47.123Z,13.97
2023-04-06T00:47:15.135Z,12.23
2023-04-06T00:49:43.101Z,13.90
2023-04-06T00:52:11.471Z,15.30
2023-04-06T00:54:39.479Z,13.63
2023-04-06T00:57:09.032Z,13.00
2023-04-06T00:59:37.145Z,11.47
2023-04-06T01:02:05.338Z,12.43
2023-04-06T01:04:34.238Z,13.27
2023-04-06T01:07:02.296Z,13.43
2023-04-06T01:09:30.907Z,13.10
2023-04-06T01:11:59.115Z,14.33
2023-04-06T01:14:28.616Z,14.57
2023-04-06T01:16:56.649Z,13.33
2023-04-06T01:19:24.801Z,14.80
2023-04-06T01:21:54.208Z,19.23
2023-04-06T01:24:24.366Z,17.53
2023-04-06T01:26:52.363Z,14.97
2023-04-06T01:29:20.828Z,15.73
2023-04-06T01:31:48.949Z,17.30
2023-04-06T01:34:17.101Z,17.47
2023-04-06T01:36:45.094Z,24.80
2023-04-06T01:39:13.125Z,27.53
2023-04-06T01:41:42.470Z,30.90
2023-04-06T01:44:10.423Z,34.77
2023-04-06T01:46:38.471Z,34.67
2023-04-06T01:49:06.834Z,31.07
2023-04-06T01:51:35.026Z,36.03
2023-04-06T01:54:03.070Z,30.93
2023-04-06T01:56:31.054Z,30.30
2023-04-06T01:59:00.432Z,28.67
2023-04-06T02:01:28.458Z,29.30
2023-04-06T02:03:56.459Z,29.93
2023-04-06T02:06:24.474Z,27.53
2023-04-06T02:08:52.453Z,29.63
2023-04-06T02:11:23.190Z,34.13
2023-04-06T02:13:51.197Z,43.57
2023-04-06T02:16:21.920Z,41.27
2023-04-06T02:18:49.920Z,35.47
2023-04-06T02:21:20.969Z,30.57
2023-04-06T02:23:50.595Z,31.67
2023-04-06T02:26:19.590Z,33.87
2023-04-06T02:28:47.813Z,33.00
2023-04-06T02:31:16.709Z,30.10
2023-04-06T02:33:46.223Z,30.43
2023-04-06T02:36:14.244Z,33.53
2023-04-06T02:38:42.243Z,32.63
2023-04-06T02:41:10.292Z,23.57
2023-04-06T02:43:38.265Z,22.93
2023-04-06T02:46:06.427Z,21.20
2023-04-06T02:48:37.011Z,22.10
2023-04-06T02:51:06.963Z,18.00
2023-04-06T02:53:34.993Z,16.67
2023-04-06T02:56:02.946Z,19.90
2023-04-06T02:58:30.967Z,16.70
2023-04-06T03:00:58.957Z,19.07
2023-04-06T03:03:27.170Z,17.63
2023-04-06T03:05:57.253Z,15.80
2023-04-06T03:08:26.647Z,16.53
2023-04-06T03:10:54.611Z,18.67
2023-04-06T03:13:22.864Z,17.43
2023-04-06T03:15:50.930Z,16.93
2023-04-06T03:18:23.519Z,18.17
2023-04-06T03:20:51.572Z,17.80
2023-04-06T03:23:21.701Z,14.47
2023-04-06T03:25:51.185Z,15.07
2023-04-06T03:28:19.191Z,13.50
2023-04-06T03:30:47.880Z,15.93
2023-04-06T03:33:16.209Z,17.23
2023-04-06T03:35:44.305Z,16.13
2023-04-06T03:38:12.288Z,19.13
2023-04-06T03:40:40.266Z,14.77
2023-04-06T03:43:10.027Z,16.87
2023-04-06T03:45:37.990Z,17.33
2023-04-06T03:48:06.700Z,17.73
2023-04-06T03:50:35.006Z,17.90
2023-04-06T03:53:04.031Z,17.27
2023-04-06T03:55:32.061Z,18.57
2023-04-06T03:58:00.051Z,17.43
2023-04-06T04:00:29.427Z,18.40
2023-04-06T04:02:57.481Z,17.13
2023-04-06T04:05:26.412Z,17.90
2023-04-06T04:07:54.610Z,15.50
2023-04-06T04:10:22.614Z,18.77
2023-04-06T04:12:50.680Z,21.60
2023-04-06T04:15:18.637Z,18.70
2023-04-06T04:17:50.110Z,17.53
2023-04-06T04:20:18.583Z,18.20
2023-04-06T04:22:46.560Z,19.13
2023-04-06T04:25:15.403Z,17.33
2023-04-06T04:27:43.415Z,17.97
2023-04-06T04:30:11.716Z,23.50
2023-04-06T04:32:39.696Z,18.23
2023-04-06T04:35:10.482Z,20.00
2023-04-06T04:37:38.565Z,23.17
2023-04-06T04:40:07.681Z,21.07
2023-04-06T04:42:36.350Z,24.00
2023-04-06T04:45:04.382Z,24.30
2023-04-06T04:47:32.440Z,25.33
2023-04-06T04:50:00.470Z,19.77
2023-04-06T04:52:29.839Z,19.30
2023-04-06T04:54:57.869Z,20.70
2023-04-06T04:57:25.910Z,20.77
2023-04-06T04:59:55.443Z,18.10
2023-04-06T05:02:24.691Z,25.60
2023-04-06T05:04:52.846Z,19.70
2023-04-06T05:07:23.910Z,16.37
2023-04-06T05:09:53.298Z,14.60
2023-04-06T05:12:21.487Z,16.80
2023-04-06T05:14:49.742Z,15.50
2023-04-06T05:17:17.743Z,14.63
2023-04-06T05:19:46.533Z,19.93
2023-04-06T05:22:17.177Z,16.80
2023-04-06T05:24:45.240Z,15.90
2023-04-06T05:27:14.697Z,14.47
2023-04-06T05:29:42.658Z,15.90
2023-04-06T05:32:11.055Z,14.67
2023-04-06T05:34:39.470Z,16.13
2023-04-06T05:37:07.396Z,15.90
2023-04-06T05:39:35.365Z,15.87
2023-04-06T05:42:09.013Z,15.67
2023-04-06T05:44:39.506Z,14.83
2023-04-06T05:47:07.569Z,15.23
2023-04-06T05:49:35.634Z,15.60
2023-04-06T05:52:05.138Z,14.67
2023-04-06T05:54:33.127Z,15.93
2023-04-06T05:57:03.889Z,11.97
2023-04-06T05:59:33.050Z,11.23
2023-04-06T06:02:05.790Z,11.40
2023-04-06T06:04:33.807Z,13.93
2023-04-06T06:07:01.869Z,11.83
2023-04-06T06:09:29.876Z,11.47
2023-04-06T06:11:57.934Z,9.50
2023-04-06T06:14:29.520Z,10.47
2023-04-06T06:16:57.609Z,12.17
2023-04-06T06:19:27.715Z,12.33
2023-04-06T06:21:55.680Z,12.77
2023-04-06T06:24:25.738Z,11.23
2023-04-06T06:26:53.693Z,13.10
2023-04-06T06:29:21.686Z,13.47
2023-04-06T06:31:49.675Z,10.87
2023-04-06T06:34:17.673Z,13.87
2023-04-06T06:36:48.361Z,12.47
2023-04-06T06:39:17.013Z,12.87
2023-04-06T06:41:44.983Z,12.47
2023-04-06T06:44:13.344Z,12.80
2023-04-06T06:46:41.575Z,13.87
2023-04-06T06:49:09.622Z,13.37
2023-04-06T06:51:37.612Z,9.77
2023-04-06T06:54:07.600Z,10.67
2023-04-06T06:56:36.896Z,11.33
2023-04-06T06:59:04.920Z,12.77
2023-04-06T07:01:34.191Z,12.90
2023-04-06T07:04:02.354Z,10.77
2023-04-06T07:06:30.363Z,11.20
2023-04-06T07:08:58.405Z,11.03
2023-04-06T07:11:27.963Z,14.30
2023-04-06T07:13:55.951Z,10.23
2023-04-06T07:16:24.289Z,13.67
2023-04-06T07:18:52.753Z,9.53
2023-04-06T07:21:21.189Z,10.23
2023-04-06T07:23:49.753Z,10.53
2023-04-06T07:26:17.756Z,10.17
2023-04-06T07:28:47.085Z,10.03
2023-04-06T07:31:15.078Z,8.33
2023-04-06T07:33:43.090Z,10.03
2023-04-06T07:36:11.199Z,10.33
2023-04-06T07:38:39.174Z,10.33
2023-04-06T07:41:07.178Z,11.50
2023-04-06T07:43:35.388Z,10.10
2023-04-06T07:46:07.152Z,9.10
2023-04-06T07:48:35.251Z,9.13
2023-04-06T07:51:04.079Z,11.00
2023-04-06T07:53:32.909Z,9.23
2023-04-06T07:56:01.625Z,8.83
2023-04-06T07:58:29.597Z,10.27
2023-04-06T08:00:58.762Z,8.50
2023-04-06T08:03:28.416Z,8.53
2023-04-06T08:05:56.834Z,9.43
2023-04-06T08:08:27.643Z,9.60
2023-04-06T08:10:55.705Z,11.10
2023-04-06T08:13:25.822Z,8.63
2023-04-06T08:15:56.316Z,8.73
2023-04-06T08:18:24.407Z,9.20
2023-04-06T08:20:53.736Z,8.47
2023-04-06T08:23:21.754Z,6.63
2023-04-06T08:25:49.849Z,7.00
2023-04-06T08:28:17.897Z,8.43
2023-04-06T08:30:45.906Z,6.83
2023-04-06T08:33:13.914Z,6.53
2023-04-06T08:35:42.014Z,6.50
2023-04-06T08:38:11.437Z,6.53
2023-04-06T08:40:39.652Z,6.80
2023-04-06T08:43:12.453Z,6.17
2023-04-06T08:45:42.490Z,6.43
2023-04-06T08:48:11.222Z,5.57
2023-04-06T08:50:45.219Z,6.70
2023-04-06T08:53:14.710Z,6.10
2023-04-06T08:55:47.484Z,7.33
2023-04-06T08:58:27.542Z,6.60
2023-04-06T09:01:00.562Z,8.53
2023-04-06T09:03:30.578Z,6.13
2023-04-06T09:05:58.890Z,7.00
2023-04-06T09:08:28.508Z,7.20
2023-04-06T09:10:56.583Z,7.07
2023-04-06T09:13:24.549Z,6.90
2023-04-06T09:16:01.759Z,6.63
2023-04-06T09:18:33.231Z,8.33
2023-04-06T09:21:04.255Z,7.60
2023-04-06T09:23:34.229Z,6.23
2023-04-06T09:26:10.625Z,6.43
2023-04-06T09:28:50.329Z,8.63
2023-04-06T09:31:23.493Z,7.40
2023-04-06T09:33:53.031Z,7.13
2023-04-06T09:36:22.716Z,6.97
2023-04-06T09:38:56.807Z,7.90
2023-04-06T09:41:26.586Z,10.37
2023-04-06T09:44:03.614Z,8.47
2023-04-06T09:46:43.055Z,9.30
2023-04-06T09:49:23.147Z,6.83
2023-04-06T09:51:58.032Z,8.77
2023-04-06T09:54:31.102Z,7.37
2023-04-06T09:57:04.380Z,7.90
2023-04-06T09:59:42.157Z,8.00
2023-04-06T10:02:17.933Z,9.20
2023-04-06T10:04:52.285Z,7.63
2023-04-06T10:07:24.204Z,7.23
2023-04-06T10:09:55.309Z,7.77
2023-04-06T10:12:23.343Z,9.37
2023-04-06T10:14:51.678Z,8.00
2023-04-06T10:17:19.960Z,9.37
2023-04-06T10:19:54.684Z,9.57
2023-04-06T10:22:28.509Z,8.83
2023-04-06T10:24:57.867Z,12.10
2023-04-06T10:27:32.824Z,7.40
2023-04-06T10:30:05.376Z,8.00
2023-04-06T10:32:38.319Z,6.97
2023-04-06T10:35:14.010Z,11.07
2023-04-06T10:37:52.879Z,7.33
2023-04-06T10:40:26.053Z,8.37
2023-04-06T10:42:58.366Z,9.43
2023-04-06T10:45:33.197Z,8.27
2023-04-06T10:48:01.304Z,7.67
2023-04-06T10:50:31.580Z,9.07
2023-04-06T10:53:04.171Z,8.40
2023-04-06T10:55:34.097Z,7.10
2023-04-06T10:58:02.054Z,6.53
2023-04-06T11:00:43.103Z,6.93
2023-04-06T11:03:18.009Z,7.00
2023-04-06T11:05:48.180Z,7.60
2023-04-06T11:08:25.498Z,6.40
2023-04-06T11:11:05.971Z,7.03
2023-04-06T11:13:42.778Z,8.10
2023-04-06T11:16:15.480Z,6.60
2023-04-06T11:18:54.308Z,8.77
2023-04-06T11:21:33.087Z,8.27
2023-04-06T11:24:10.745Z,6.43
2023-04-06T11:26:45.850Z,7.33
2023-04-06T11:29:14.470Z,7.37
2023-04-06T11:31:48.002Z,6.67
2023-04-06T11:34:19.056Z,8.07
2023-04-06T11:36:48.665Z,7.20
2023-04-06T11:39:24.112Z,7.17
2023-04-06T11:41:54.388Z,7.83
2023-04-06T11:44:34.082Z,7.67
2023-04-06T11:47:03.402Z,8.60
2023-04-06T11:49:31.923Z,7.97
2023-04-06T11:52:01.260Z,7.73
2023-04-06T11:54:33.642Z,9.33
2023-04-06T11:57:07.203Z,7.90
2023-04-06T11:59:35.915Z,8.57
2023-04-06T12:02:06.489Z,8.13
2023-04-06T12:04:34.902Z,8.80
2023-04-06T12:07:03.334Z,9.57
2023-04-06T12:09:31.462Z,9.07
2023-04-06T12:11:59.751Z,11.50
2023-04-06T12:14:29.241Z,8.73
2023-04-06T12:16:57.387Z,8.97
2023-04-06T12:19:27.498Z,10.63
2023-04-06T12:21:55.815Z,10.50
2023-04-06T12:24:24.062Z,10.97
2023-04-06T12:26:59.630Z,9.53
2023-04-06T12:29:32.464Z,9.50
2023-04-06T12:32:02.434Z,11.37
2023-04-06T12:34:31.157Z,8.50
2023-04-06T12:36:59.239Z,10.13
2023-04-06T12:39:27.723Z,10.30
2023-04-06T12:41:56.291Z,11.57
2023-04-06T12:44:25.486Z,10.43
2023-04-06T12:46:56.474Z,9.07
2023-04-06T12:49:24.587Z,8.87
2023-04-06T12:51:52.570Z,10.13
2023-04-06T12:54:20.863Z,11.97
2023-04-06T12:56:48.822Z,11.10
2023-04-06T12:59:17.389Z,11.73
2023-04-06T13:01:45.687Z,11.13
2023-04-06T13:04:15.339Z,12.57
2023-04-06T13:06:43.397Z,13.87
2023-04-06T13:09:11.402Z,15.03
2023-04-06T13:11:39.827Z,13.63
2023-04-06T13:14:08.079Z,12.57
2023-04-06T13:16:37.274Z,12.27
2023-04-06T13:19:05.367Z,12.00
2023-04-06T13:21:34.700Z,12.57
2023-04-06T13:24:02.651Z,14.33
2023-04-06T13:26:30.896Z,11.87
2023-04-06T13:29:00.943Z,12.97
2023-04-06T13:31:28.975Z,11.90
2023-04-06T13:33:59.244Z,12.23
2023-04-06T13:36:31.448Z,12.77
2023-04-06T13:39:04.212Z,13.27
2023-04-06T13:41:34.283Z,13.00
2023-04-06T13:44:02.792Z,13.93
2023-04-06T13:46:30.935Z,13.70
2023-04-06T13:48:58.926Z,13.07
2023-04-06T13:51:27.502Z,12.67
2023-04-06T13:53:56.118Z,14.07
2023-04-06T13:56:25.796Z,15.00
2023-04-06T13:58:56.627Z,13.57
2023-04-06T14:01:28.455Z,13.40
2023-04-06T14:03:56.745Z,13.27
2023-04-06T14:06:30.965Z,13.33
2023-04-06T14:09:00.602Z,14.23
2023-04-06T14:11:30.273Z,12.67
2023-04-06T14:13:58.743Z,15.67
2023-04-06T14:16:27.658Z,15.13
2023-04-06T14:18:56.055Z,14.27
2023-04-06T14:21:24.471Z,12.70
2023-04-06T14:23:53.625Z,12.80
2023-04-06T14:26:21.724Z,14.93
2023-04-06T14:28:51.536Z,14.37
2023-04-06T14:31:19.682Z,14.30
2023-04-06T14:33:48.024Z,13.07
2023-04-06T14:36:16.440Z,12.30
2023-04-06T14:38:47.582Z,13.07
2023-04-06T14:41:18.802Z,14.47
2023-04-06T14:43:48.120Z,14.80
2023-04-06T14:46:17.829Z,13.27
2023-04-06T14:48:49.237Z,14.53
2023-04-06T14:51:17.628Z,12.60
2023-04-06T14:53:45.730Z,15.00
2023-04-06T14:56:13.847Z,13.57
2023-04-06T14:58:45.953Z,13.93
2023-04-06T15:01:14.216Z,13.07
2023-04-06T15:03:44.214Z,13.80
2023-04-06T15:06:16.105Z,13.33
2023-04-06T15:08:44.430Z,14.20
2023-04-06T15:11:13.009Z,16.40
2023-04-06T15:13:44.437Z,15.03
2023-04-06T15:16:12.858Z,17.60
2023-04-06T15:18:41.336Z,15.80
2023-04-06T15:21:10.754Z,17.77
2023-04-06T15:23:38.744Z,18.50
2023-04-06T15:26:06.863Z,16.67
2023-04-06T15:28:34.976Z,17.10
2023-04-06T15:31:07.057Z,16.83
2023-04-06T15:33:35.327Z,17.90
2023-04-06T15:36:10.149Z,15.80
2023-04-06T15:38:39.610Z,16.53
2023-04-06T15:41:07.696Z,18.83
2023-04-06T15:43:35.703Z,21.40
2023-04-06T15:46:04.736Z,27.07
2023-04-06T15:48:34.705Z,30.50
2023-04-06T15:51:02.851Z,26.33
2023-04-06T15:53:30.952Z,25.63
2023-04-06T15:56:01.661Z,24.47
2023-04-06T15:58:29.711Z,25.43
2023-04-06T16:00:58.585Z,24.37
2023-04-06T16:03:27.021Z,21.87
2023-04-06T16:06:08.045Z,20.27
2023-04-06T16:08:37.059Z,21.60
2023-04-06T16:11:06.923Z,20.47
2023-04-06T16:13:37.451Z,21.40
2023-04-06T16:16:06.097Z,22.43
2023-04-06T16:18:36.447Z,20.30
2023-04-06T16:21:06.425Z,20.20
2023-04-06T16:23:34.461Z,22.17
2023-04-06T16:26:02.488Z,20.73
2023-04-06T16:28:33.014Z,21.13
2023-04-06T16:31:01.547Z,20.27
2023-04-06T16:33:29.546Z,21.27
2023-04-06T16:35:57.540Z,21.50
2023-04-06T16:38:29.961Z,21.40
2023-04-06T16:41:02.058Z,20.13
2023-04-06T16:43:32.230Z,19.97
2023-04-06T16:46:00.372Z,22.10
2023-04-06T16:48:28.741Z,23.20
2023-04-06T16:50:56.936Z,24.27
2023-04-06T16:53:25.492Z,24.53
2023-04-06T16:55:53.980Z,24.47
2023-04-06T16:58:26.927Z,25.80
2023-04-06T17:00:56.312Z,26.30
2023-04-06T17:03:24.433Z,26.73
2023-04-06T17:05:52.567Z,27.83
2023-04-06T17:08:22.419Z,30.93
2023-04-06T17:10:59.061Z,31.83
2023-04-06T17:13:30.825Z,35.03
2023-04-06T17:16:00.805Z,34.27
2023-04-06T17:18:30.077Z,33.23
2023-04-06T17:21:01.703Z,37.87
2023-04-06T17:23:29.678Z,41.33
2023-04-06T17:25:59.264Z,45.10
2023-04-06T17:28:27.294Z,40.67
2023-04-06T17:30:56.433Z,41.70
2023-04-06T17:33:26.484Z,40.40
2023-04-06T17:35:55.064Z,39.63
2023-04-06T17:38:24.135Z,36.03
2023-04-06T17:40:52.192Z,32.57
2023-04-06T17:43:20.289Z,31.00
2023-04-06T17:45:50.833Z,29.37
2023-04-06T17:48:19.274Z,30.90
2023-04-06T17:50:48.637Z,27.43
2023-04-06T17:53:18.803Z,24.37
2023-04-06T17:55:47.232Z,25.57
2023-04-06T17:58:15.609Z,23.73
2023-04-06T18:00:43.644Z,23.10
2023-04-06T18:03:11.882Z,21.47
2023-04-06T18:05:40.541Z,22.97
2023-04-06T18:08:09.904Z,22.53
2023-04-06T18:10:39.261Z,22.17
2023-04-06T18:13:07.881Z,20.47
2023-04-06T18:15:38.320Z,23.47
2023-04-06T18:18:07.441Z,24.43
2023-04-06T18:20:40.361Z,22.17
2023-04-06T18:23:09.822Z,23.07
2023-04-06T18:25:39.790Z,22.73
2023-04-06T18:28:09.976Z,24.50
2023-04-06T18:30:42.525Z,26.40
2023-04-06T18:33:10.663Z,29.37
2023-04-06T18:35:39.685Z,30.37
2023-04-06T18:38:09.072Z,29.10
2023-04-06T18:40:38.541Z,30.90
2023-04-06T18:43:11.124Z,30.00
2023-04-06T18:45:39.702Z,27.63
2023-04-06T18:48:09.887Z,27.73
2023-04-06T18:50:38.047Z,27.40
2023-04-06T18:53:08.914Z,26.67
2023-04-06T18:55:38.488Z,25.67
2023-04-06T18:58:09.324Z,27.03
2023-04-06T19:00:37.691Z,27.37
2023-04-06T19:03:06.108Z,27.50
2023-04-06T19:05:34.412Z,27.10
2023-04-06T19:08:05.468Z,28.57
2023-04-06T19:10:34.302Z,27.30
2023-04-06T19:13:06.047Z,27.17
2023-04-06T19:15:34.360Z,26.27
2023-04-06T19:18:02.453Z,25.73
2023-04-06T19:20:30.614Z,27.83
2023-04-06T19:23:00.357Z,27.20
2023-04-06T19:25:29.968Z,26.67
2023-04-06T19:27:58.278Z,27.87
2023-04-06T19:30:29.027Z,27.20
2023-04-06T19:32:57.552Z,28.53
2023-04-06T19:35:31.744Z,29.13
2023-04-06T19:38:04.459Z,32.80
2023-04-06T19:40:34.158Z,31.40
2023-04-06T19:43:04.720Z,32.13
2023-04-06T19:45:35.416Z,31.37
2023-04-06T19:48:03.640Z,30.10
2023-04-06T19:50:43.800Z,31.37
2023-04-06T19:53:24.303Z,30.57
2023-04-06T19:55:55.897Z,30.40
2023-04-06T19:58:44.278Z,32.63
2023-04-06T20:01:29.053Z,28.70
2023-04-06T20:03:57.763Z,30.70
2023-04-06T20:06:26.800Z,33.17
2023-04-06T20:09:01.013Z,31.20
2023-04-06T20:11:29.220Z,32.20
2023-04-06T20:14:00.416Z,31.63
2023-04-06T20:16:29.907Z,30.73
2023-04-06T20:18:57.918Z,30.90
2023-04-06T20:21:27.655Z,31.10
2023-04-06T20:23:58.723Z,31.03
2023-04-06T20:26:29.850Z,33.70
2023-04-06T20:28:57.924Z,31.40
2023-04-06T20:31:29.282Z,32.40
2023-04-06T20:33:57.441Z,34.37
2023-04-06T20:36:25.557Z,34.87
2023-04-06T20:38:55.163Z,33.83
2023-04-06T20:41:23.170Z,33.13
2023-04-06T20:43:51.137Z,35.07
2023-04-06T20:46:19.193Z,34.27
2023-04-06T20:48:48.571Z,34.17
2023-04-06T20:51:23.183Z,35.40
2023-04-06T20:53:53.005Z,34.93
2023-04-06T20:56:22.751Z,36.03
2023-04-06T20:58:51.140Z,33.83
2023-04-06T21:01:19.714Z,35.60
2023-04-06T21:03:49.252Z,35.53
2023-04-06T21:06:17.447Z,37.43
2023-04-06T21:08:45.533Z,35.93
2023-04-06T21:11:13.622Z,37.20
2023-04-06T21:13:44.350Z,33.83
2023-04-06T21:16:12.744Z,36.43
2023-04-06T21:18:40.988Z,36.27
2023-04-06T21:21:10.445Z,37.03
2023-04-06T21:23:39.096Z,38.60
2023-04-06T21:26:07.698Z,32.93
2023-04-06T21:28:35.723Z,35.50
2023-04-06T21:31:08.011Z,33.03
2023-04-06T21:33:36.132Z,33.47
2023-04-06T21:36:07.461Z,35.37
2023-04-06T21:38:36.835Z,36.77
2023-04-06T21:41:06.165Z,41.97
2023-04-06T21:43:34.150Z,47.93
2023-04-06T21:46:02.150Z,45.20
2023-04-06T21:48:30.155Z,43.10
2023-04-06T21:50:58.187Z,42.60
2023-04-06T21:53:26.159Z,38.10
2023-04-06T21:55:55.508Z,34.53
2023-04-06T21:58:23.760Z,37.97
2023-04-06T22:00:51.803Z,36.13
2023-04-06T22:03:20.293Z,35.87
2023-04-06T22:05:48.506Z,34.87
2023-04-06T22:08:25.405Z,33.83
2023-04-06T22:11:07.718Z,33.20
2023-04-06T22:13:35.919Z,31.93
2023-04-06T22:16:04.192Z,33.73
2023-04-06T22:18:32.336Z,33.27
2023-04-06T22:21:00.791Z,35.37
2023-04-06T22:23:28.792Z,37.83
2023-04-06T22:25:57.987Z,36.83
2023-04-06T22:28:27.677Z,34.30
2023-04-06T22:30:55.681Z,33.77
2023-04-06T22:33:23.648Z,36.83
2023-04-06T22:35:51.617Z,33.03
2023-04-06T22:38:19.998Z,34.07
2023-04-06T22:40:48.018Z,32.63
2023-04-06T22:43:17.023Z,34.13
2023-04-06T22:45:48.598Z,32.07
2023-04-06T22:48:16.636Z,31.27
2023-04-06T22:50:44.652Z,32.57
2023-04-06T22:53:12.652Z,29.50
2023-04-06T22:55:40.915Z,34.40
2023-04-06T22:58:08.878Z,30.30
2023-04-06T23:00:36.927Z,30.70
2023-04-06T23:03:06.547Z,31.47
2023-04-06T23:05:34.684Z,30.70
2023-04-06T23:08:02.651Z,31.53
2023-04-06T23:10:30.698Z,30.40
2023-04-06T23:12:58.686Z,30.53
2023-04-06T23:15:26.713Z,31.77
2023-04-06T23:17:54.732Z,30.77
2023-04-06T23:20:24.370Z,33.67
2023-04-06T23:22:52.354Z,32.57
2023-04-06T23:25:20.500Z,32.30
2023-04-06T23:27:48.522Z,33.67
2023-04-06T23:30:16.724Z,35.27
2023-04-06T23:32:44.823Z,31.60
2023-04-06T23:35:12.889Z,35.03
2023-04-06T23:37:42.221Z,32.93
2023-04-06T23:40:10.847Z,34.07
2023-04-06T23:42:38.848Z,33.30
2023-04-06T23:45:08.091Z,32.93
2023-04-06T23:47:36.233Z,35.03
2023-04-06T23:50:06.330Z,31.53
2023-04-06T23:52:34.315Z,32.60
2023-04-06T23:55:04.007Z,32.20
2023-04-06T23:57:32.068Z,30.57
